sensor_id;sensor_type;location;lat;lon;timestamp;temperature;humidity
53844;DHT22;39744;53.314;5.710;2022-10-26T00:02:19;10.60;99.90
53844;DHT22;39744;53.314;5.710;2022-10-26T00:04:45;10.50;99.90
53844;DHT22;39744;53.314;5.710;2022-10-26T00:07:10;10.60;99.90
53844;DHT22;39744;53.314;5.710;2022-10-26T00:09:36;10.50;99.90
53844;DHT22;39744;53.314;5.710;2022-10-26T00:12:02;9.30;99.90
53844;DHT22;39744;53.314;5.710;2022-10-26T00:14:28;10.60;99.90
53844;DHT22;39744;53.314;5.710;2022-10-26T00:16:56;10.50;99.90
53844;DHT22;39744;53.314;5.710;2022-10-26T00:19:21;10.40;99.90
53844;DHT22;39744;53.314;5.710;2022-10-26T00:21:47;10.50;99.90
53844;DHT22;39744;53.314;5.710;2022-10-26T00:24:13;10.50;99.90
53844;DHT22;39744;53.314;5.710;2022-10-26T00:26:39;10.50;99.90
53844;DHT22;39744;53.314;5.710;2022-10-26T00:29:05;10.40;99.90
53844;DHT22;39744;53.314;5.710;2022-10-26T00:31:31;10.40;99.90
53844;DHT22;39744;53.314;5.710;2022-10-26T00:33:57;10.40;99.90
53844;DHT22;39744;53.314;5.710;2022-10-26T00:36:24;10.30;99.90
53844;DHT22;39744;53.314;5.710;2022-10-26T00:38:54;10.30;99.90
53844;DHT22;39744;53.314;5.710;2022-10-26T00:41:25;10.20;99.90
53844;DHT22;39744;53.314;5.710;2022-10-26T00:43:52;10.10;99.90
53844;DHT22;39744;53.314;5.710;2022-10-26T00:46:23;10.10;99.90
53844;DHT22;39744;53.314;5.710;2022-10-26T00:48:54;10.00;99.90
53844;DHT22;39744;53.314;5.710;2022-10-26T00:51:25;9.90;99.90
53844;DHT22;39744;53.314;5.710;2022-10-26T00:53:52;9.90;99.90
53844;DHT22;39744;53.314;5.710;2022-10-26T00:56:18;9.90;99.90
53844;DHT22;39744;53.314;5.710;2022-10-26T00:58:44;9.80;99.90
53844;DHT22;39744;53.314;5.710;2022-10-26T01:01:10;9.80;99.90
53844;DHT22;39744;53.314;5.710;2022-10-26T01:03:37;9.80;99.90
53844;DHT22;39744;53.314;5.710;2022-10-26T01:06:04;9.80;99.90
53844;DHT22;39744;53.314;5.710;2022-10-26T01:08:30;9.80;99.90
53844;DHT22;39744;53.314;5.710;2022-10-26T01:10:57;9.80;99.90
53844;DHT22;39744;53.314;5.710;2022-10-26T01:13:25;9.70;99.90
53844;DHT22;39744;53.314;5.710;2022-10-26T01:16:08;9.70;99.90
53844;DHT22;39744;53.314;5.710;2022-10-26T01:21:39;9.70;99.90
53844;DHT22;39744;53.314;5.710;2022-10-26T01:38:03;9.80;99.90
53844;DHT22;39744;53.314;5.710;2022-10-26T01:40:53;9.80;99.90
53844;DHT22;39744;53.314;5.710;2022-10-26T01:43:24;9.80;99.90
53844;DHT22;39744;53.314;5.710;2022-10-26T01:45:51;9.70;99.90
53844;DHT22;39744;53.314;5.710;2022-10-26T01:48:19;9.70;99.90
53844;DHT22;39744;53.314;5.710;2022-10-26T01:50:51;9.70;99.90
53844;DHT22;39744;53.314;5.710;2022-10-26T01:53:18;9.70;99.90
53844;DHT22;39744;53.314;5.710;2022-10-26T01:55:49;9.70;99.90
53844;DHT22;39744;53.314;5.710;2022-10-26T02:07:02;9.60;99.90
53844;DHT22;39744;53.314;5.710;2022-10-26T02:09:43;9.50;99.90
53844;DHT22;39744;53.314;5.710;2022-10-26T02:12:19;9.50;99.90
53844;DHT22;39744;53.314;5.710;2022-10-26T02:14:53;9.40;99.90
53844;DHT22;39744;53.314;5.710;2022-10-26T02:17:36;9.40;99.90
53844;DHT22;39744;53.314;5.710;2022-10-26T02:20:07;9.30;99.90
53844;DHT22;39744;53.314;5.710;2022-10-26T02:22:44;9.30;99.90
53844;DHT22;39744;53.314;5.710;2022-10-26T02:25:16;9.30;99.90
53844;DHT22;39744;53.314;5.710;2022-10-26T02:27:46;9.30;99.90
53844;DHT22;39744;53.314;5.710;2022-10-26T02:30:38;9.20;99.90
53844;DHT22;39744;53.314;5.710;2022-10-26T02:33:28;9.20;99.90
53844;DHT22;39744;53.314;5.710;2022-10-26T02:35:58;9.20;99.90
53844;DHT22;39744;53.314;5.710;2022-10-26T02:38:26;9.30;99.90
53844;DHT22;39744;53.314;5.710;2022-10-26T02:40:53;9.20;99.90
53844;DHT22;39744;53.314;5.710;2022-10-26T02:43:22;9.20;99.90
53844;DHT22;39744;53.314;5.710;2022-10-26T02:45:55;9.20;99.90
53844;DHT22;39744;53.314;5.710;2022-10-26T02:48:22;9.20;99.90
53844;DHT22;39744;53.314;5.710;2022-10-26T02:51:12;9.20;99.90
53844;DHT22;39744;53.314;5.710;2022-10-26T02:53:50;9.20;99.90
53844;DHT22;39744;53.314;5.710;2022-10-26T02:59:20;9.10;99.90
53844;DHT22;39744;53.314;5.710;2022-10-26T03:01:47;9.10;99.90
53844;DHT22;39744;53.314;5.710;2022-10-26T03:04:12;9.10;99.90
53844;DHT22;39744;53.314;5.710;2022-10-26T03:06:38;9.10;99.90
53844;DHT22;39744;53.314;5.710;2022-10-26T03:09:04;9.10;99.90
53844;DHT22;39744;53.314;5.710;2022-10-26T03:11:29;9.10;99.90
53844;DHT22;39744;53.314;5.710;2022-10-26T03:13:55;9.20;99.90
53844;DHT22;39744;53.314;5.710;2022-10-26T03:16:21;9.20;99.90
53844;DHT22;39744;53.314;5.710;2022-10-26T03:18:46;9.10;99.90
53844;DHT22;39744;53.314;5.710;2022-10-26T03:21:12;9.20;99.90
53844;DHT22;39744;53.314;5.710;2022-10-26T03:23:37;9.20;99.90
53844;DHT22;39744;53.314;5.710;2022-10-26T03:26:04;9.20;99.90
53844;DHT22;39744;53.314;5.710;2022-10-26T03:28:30;9.20;99.90
53844;DHT22;39744;53.314;5.710;2022-10-26T03:30:55;9.20;99.90
53844;DHT22;39744;53.314;5.710;2022-10-26T03:33:21;9.20;99.90
53844;DHT22;39744;53.314;5.710;2022-10-26T03:35:53;9.20;99.90
53844;DHT22;39744;53.314;5.710;2022-10-26T03:38:19;9.20;99.90
53844;DHT22;39744;53.314;5.710;2022-10-26T03:40:45;9.20;99.90
53844;DHT22;39744;53.314;5.710;2022-10-26T03:43:12;9.20;99.90
53844;DHT22;39744;53.314;5.710;2022-10-26T03:45:38;9.20;99.90
53844;DHT22;39744;53.314;5.710;2022-10-26T03:48:04;9.20;99.90
53844;DHT22;39744;53.314;5.710;2022-10-26T03:50:29;9.20;99.90
53844;DHT22;39744;53.314;5.710;2022-10-26T03:52:55;9.20;99.90
53844;DHT22;39744;53.314;5.710;2022-10-26T03:55:20;9.30;99.90
53844;DHT22;39744;53.314;5.710;2022-10-26T03:57:46;9.30;99.90
53844;DHT22;39744;53.314;5.710;2022-10-26T04:00:14;9.30;99.90
53844;DHT22;39744;53.314;5.710;2022-10-26T04:02:41;9.30;99.90
53844;DHT22;39744;53.314;5.710;2022-10-26T04:05:07;9.30;99.90
53844;DHT22;39744;53.314;5.710;2022-10-26T04:07:33;9.30;99.90
53844;DHT22;39744;53.314;5.710;2022-10-26T04:09:59;9.40;99.90
53844;DHT22;39744;53.314;5.710;2022-10-26T04:12:24;9.40;99.90
53844;DHT22;39744;53.314;5.710;2022-10-26T04:14:50;9.50;99.90
53844;DHT22;39744;53.314;5.710;2022-10-26T04:17:16;9.50;99.90
53844;DHT22;39744;53.314;5.710;2022-10-26T04:19:41;9.50;99.90
53844;DHT22;39744;53.314;5.710;2022-10-26T04:24:51;9.60;99.90
53844;DHT22;39744;53.314;5.710;2022-10-26T04:27:17;9.70;99.90
53844;DHT22;39744;53.314;5.710;2022-10-26T04:29:42;9.80;99.90
53844;DHT22;39744;53.314;5.710;2022-10-26T04:32:08;9.80;99.90
53844;DHT22;39744;53.314;5.710;2022-10-26T04:34:34;9.80;99.90
53844;DHT22;39744;53.314;5.710;2022-10-26T04:36:59;9.80;99.90
53844;DHT22;39744;53.314;5.710;2022-10-26T04:39:25;9.90;99.90
53844;DHT22;39744;53.314;5.710;2022-10-26T04:41:50;9.90;99.90
53844;DHT22;39744;53.314;5.710;2022-10-26T04:44:17;9.90;99.90
53844;DHT22;39744;53.314;5.710;2022-10-26T04:46:43;10.00;99.90
53844;DHT22;39744;53.314;5.710;2022-10-26T04:49:09;10.00;99.90
53844;DHT22;39744;53.314;5.710;2022-10-26T04:51:34;10.00;99.90
53844;DHT22;39744;53.314;5.710;2022-10-26T04:54:00;10.00;99.90
53844;DHT22;39744;53.314;5.710;2022-10-26T04:56:27;10.00;99.90
53844;DHT22;39744;53.314;5.710;2022-10-26T04:58:53;10.00;99.90
53844;DHT22;39744;53.314;5.710;2022-10-26T05:01:19;10.10;99.90
53844;DHT22;39744;53.314;5.710;2022-10-26T05:03:48;10.10;99.90
53844;DHT22;39744;53.314;5.710;2022-10-26T05:06:15;10.20;99.90
53844;DHT22;39744;53.314;5.710;2022-10-26T05:08:40;10.20;99.90
53844;DHT22;39744;53.314;5.710;2022-10-26T05:11:06;10.20;99.90
53844;DHT22;39744;53.314;5.710;2022-10-26T05:13:32;10.20;99.90
53844;DHT22;39744;53.314;5.710;2022-10-26T05:15:57;10.20;99.90
53844;DHT22;39744;53.314;5.710;2022-10-26T05:18:23;10.30;99.90
53844;DHT22;39744;53.314;5.710;2022-10-26T05:20:51;10.30;99.90
53844;DHT22;39744;53.314;5.710;2022-10-26T05:23:17;10.30;99.90
53844;DHT22;39744;53.314;5.710;2022-10-26T05:25:43;10.30;99.90
53844;DHT22;39744;53.314;5.710;2022-10-26T05:28:10;10.30;99.90
53844;DHT22;39744;53.314;5.710;2022-10-26T05:30:38;10.30;99.90
53844;DHT22;39744;53.314;5.710;2022-10-26T05:33:04;10.40;99.90
53844;DHT22;39744;53.314;5.710;2022-10-26T05:35:31;10.40;99.90
53844;DHT22;39744;53.314;5.710;2022-10-26T05:37:57;10.40;99.90
53844;DHT22;39744;53.314;5.710;2022-10-26T05:40:23;10.40;99.90
53844;DHT22;39744;53.314;5.710;2022-10-26T05:42:49;10.40;99.90
53844;DHT22;39744;53.314;5.710;2022-10-26T05:45:15;10.40;99.90
53844;DHT22;39744;53.314;5.710;2022-10-26T05:47:45;10.40;99.90
53844;DHT22;39744;53.314;5.710;2022-10-26T05:50:11;10.50;99.90
53844;DHT22;39744;53.314;5.710;2022-10-26T05:52:41;10.40;99.90
53844;DHT22;39744;53.314;5.710;2022-10-26T05:55:08;10.40;99.90
53844;DHT22;39744;53.314;5.710;2022-10-26T05:57:35;10.40;99.90
53844;DHT22;39744;53.314;5.710;2022-10-26T06:00:02;10.40;99.90
53844;DHT22;39744;53.314;5.710;2022-10-26T06:02:45;10.40;99.90
53844;DHT22;39744;53.314;5.710;2022-10-26T06:05:21;10.40;99.90
53844;DHT22;39744;53.314;5.710;2022-10-26T06:07:48;10.40;99.90
53844;DHT22;39744;53.314;5.710;2022-10-26T06:10:14;10.40;99.90
53844;DHT22;39744;53.314;5.710;2022-10-26T06:12:41;10.40;99.90
53844;DHT22;39744;53.314;5.710;2022-10-26T06:15:08;10.40;99.90
53844;DHT22;39744;53.314;5.710;2022-10-26T06:20:28;10.50;99.90
53844;DHT22;39744;53.314;5.710;2022-10-26T06:23:02;10.50;99.90
53844;DHT22;39744;53.314;5.710;2022-10-26T06:25:56;10.50;99.90
53844;DHT22;39744;53.314;5.710;2022-10-26T06:28:35;10.50;99.90
53844;DHT22;39744;53.314;5.710;2022-10-26T06:31:03;10.50;99.90
53844;DHT22;39744;53.314;5.710;2022-10-26T06:33:29;10.50;99.90
53844;DHT22;39744;53.314;5.710;2022-10-26T06:38:34;10.60;99.90
53844;DHT22;39744;53.314;5.710;2022-10-26T06:41:01;10.60;99.90
53844;DHT22;39744;53.314;5.710;2022-10-26T06:43:29;10.60;99.90
53844;DHT22;39744;53.314;5.710;2022-10-26T06:48:46;10.60;99.90
53844;DHT22;39744;53.314;5.710;2022-10-26T06:51:14;10.50;99.90
53844;DHT22;39744;53.314;5.710;2022-10-26T06:56:13;10.60;99.90
53844;DHT22;39744;53.314;5.710;2022-10-26T06:58:39;10.70;99.90
53844;DHT22;39744;53.314;5.710;2022-10-26T07:01:06;10.70;99.90
53844;DHT22;39744;53.314;5.710;2022-10-26T07:03:34;10.70;99.90
53844;DHT22;39744;53.314;5.710;2022-10-26T07:06:00;10.70;99.90
53844;DHT22;39744;53.314;5.710;2022-10-26T07:08:26;10.80;99.90
53844;DHT22;39744;53.314;5.710;2022-10-26T07:10:51;10.80;99.90
53844;DHT22;39744;53.314;5.710;2022-10-26T07:13:17;10.90;99.90
53844;DHT22;39744;53.314;5.710;2022-10-26T07:15:42;10.90;99.90
53844;DHT22;39744;53.314;5.710;2022-10-26T07:18:09;11.00;99.90
53844;DHT22;39744;53.314;5.710;2022-10-26T07:20:37;11.00;99.90
53844;DHT22;39744;53.314;5.710;2022-10-26T07:23:03;11.00;99.90
53844;DHT22;39744;53.314;5.710;2022-10-26T07:25:31;11.00;99.90
53844;DHT22;39744;53.314;5.710;2022-10-26T07:27:57;11.10;99.90
53844;DHT22;39744;53.314;5.710;2022-10-26T07:30:24;11.10;99.90
53844;DHT22;39744;53.314;5.710;2022-10-26T07:32:50;11.20;99.90
53844;DHT22;39744;53.314;5.710;2022-10-26T07:35:22;11.20;99.90
53844;DHT22;39744;53.314;5.710;2022-10-26T07:37:48;11.30;99.90
53844;DHT22;39744;53.314;5.710;2022-10-26T07:40:13;11.30;99.90
53844;DHT22;39744;53.314;5.710;2022-10-26T07:42:39;11.30;99.90
53844;DHT22;39744;53.314;5.710;2022-10-26T07:45:05;11.40;99.90
53844;DHT22;39744;53.314;5.710;2022-10-26T07:47:31;11.40;99.90
53844;DHT22;39744;53.314;5.710;2022-10-26T07:49:56;11.50;99.90
53844;DHT22;39744;53.314;5.710;2022-10-26T07:52:22;11.40;99.90
53844;DHT22;39744;53.314;5.710;2022-10-26T07:54:47;11.40;99.90
53844;DHT22;39744;53.314;5.710;2022-10-26T07:57:15;11.50;99.90
53844;DHT22;39744;53.314;5.710;2022-10-26T07:59:41;11.50;99.90
53844;DHT22;39744;53.314;5.710;2022-10-26T08:02:08;11.60;99.90
53844;DHT22;39744;53.314;5.710;2022-10-26T08:04:34;11.70;99.90
53844;DHT22;39744;53.314;5.710;2022-10-26T08:06:59;11.70;99.90
53844;DHT22;39744;53.314;5.710;2022-10-26T08:09:25;11.80;99.90
53844;DHT22;39744;53.314;5.710;2022-10-26T08:11:50;11.90;99.90
53844;DHT22;39744;53.314;5.710;2022-10-26T08:14:16;12.10;99.90
53844;DHT22;39744;53.314;5.710;2022-10-26T08:16:41;12.10;99.90
53844;DHT22;39744;53.314;5.710;2022-10-26T08:19:07;12.20;99.90
53844;DHT22;39744;53.314;5.710;2022-10-26T08:21:33;12.30;99.90
53844;DHT22;39744;53.314;5.710;2022-10-26T08:23:59;12.40;99.90
53844;DHT22;39744;53.314;5.710;2022-10-26T08:26:24;12.40;99.90
53844;DHT22;39744;53.314;5.710;2022-10-26T08:28:50;12.40;99.90
53844;DHT22;39744;53.314;5.710;2022-10-26T08:31:15;12.50;99.90
53844;DHT22;39744;53.314;5.710;2022-10-26T08:33:41;12.60;99.90
53844;DHT22;39744;53.314;5.710;2022-10-26T08:36:07;12.70;99.90
53844;DHT22;39744;53.314;5.710;2022-10-26T08:38:32;12.80;99.90
53844;DHT22;39744;53.314;5.710;2022-10-26T08:40:58;12.80;99.90
53844;DHT22;39744;53.314;5.710;2022-10-26T08:43:45;13.00;99.90
53844;DHT22;39744;53.314;5.710;2022-10-26T08:46:19;13.10;99.90
53844;DHT22;39744;53.314;5.710;2022-10-26T08:48:54;13.30;99.90
53844;DHT22;39744;53.314;5.710;2022-10-26T08:51:29;13.50;99.90
53844;DHT22;39744;53.314;5.710;2022-10-26T08:54:13;13.60;99.90
53844;DHT22;39744;53.314;5.710;2022-10-26T08:56:44;13.70;99.90
53844;DHT22;39744;53.314;5.710;2022-10-26T08:59:35;13.90;99.90
53844;DHT22;39744;53.314;5.710;2022-10-26T09:02:01;13.90;99.90
53844;DHT22;39744;53.314;5.710;2022-10-26T09:04:29;14.00;99.90
53844;DHT22;39744;53.314;5.710;2022-10-26T09:07:11;13.90;99.90
53844;DHT22;39744;53.314;5.710;2022-10-26T09:09:47;13.90;99.90
53844;DHT22;39744;53.314;5.710;2022-10-26T09:12:45;13.90;99.90
53844;DHT22;39744;53.314;5.710;2022-10-26T09:18:45;14.10;99.90
53844;DHT22;39744;53.314;5.710;2022-10-26T09:26:54;14.30;99.90
53844;DHT22;39744;53.314;5.710;2022-10-26T09:29:26;14.30;99.90
53844;DHT22;39744;53.314;5.710;2022-10-26T09:31:53;14.40;99.90
53844;DHT22;39744;53.314;5.710;2022-10-26T09:36:54;14.50;99.90
53844;DHT22;39744;53.314;5.710;2022-10-26T09:39:25;14.60;99.90
53844;DHT22;39744;53.314;5.710;2022-10-26T09:42:02;14.60;99.90
53844;DHT22;39744;53.314;5.710;2022-10-26T09:44:54;14.60;99.90
53844;DHT22;39744;53.314;5.710;2022-10-26T09:47:51;14.70;99.90
53844;DHT22;39744;53.314;5.710;2022-10-26T09:50:29;14.80;99.90
53844;DHT22;39744;53.314;5.710;2022-10-26T09:52:57;14.90;99.90
53844;DHT22;39744;53.314;5.710;2022-10-26T09:55:23;15.00;99.90
53844;DHT22;39744;53.314;5.710;2022-10-26T09:57:53;15.10;99.90
53844;DHT22;39744;53.314;5.710;2022-10-26T10:00:21;15.00;99.90
53844;DHT22;39744;53.314;5.710;2022-10-26T10:02:52;15.00;99.90
53844;DHT22;39744;53.314;5.710;2022-10-26T10:05:32;15.00;99.90
53844;DHT22;39744;53.314;5.710;2022-10-26T10:08:16;15.00;99.90
53844;DHT22;39744;53.314;5.710;2022-10-26T10:13:32;15.00;99.90
53844;DHT22;39744;53.314;5.710;2022-10-26T10:16:11;15.00;99.90
53844;DHT22;39744;53.314;5.710;2022-10-26T10:18:39;15.10;99.90
53844;DHT22;39744;53.314;5.710;2022-10-26T10:21:06;15.10;99.90
53844;DHT22;39744;53.314;5.710;2022-10-26T10:23:46;15.30;99.90
53844;DHT22;39744;53.314;5.710;2022-10-26T10:26:12;15.30;99.90
53844;DHT22;39744;53.314;5.710;2022-10-26T10:28:40;15.20;99.90
53844;DHT22;39744;53.314;5.710;2022-10-26T10:31:20;15.30;99.90
53844;DHT22;39744;53.314;5.710;2022-10-26T10:33:47;15.30;99.90
53844;DHT22;39744;53.314;5.710;2022-10-26T10:36:22;15.20;99.90
53844;DHT22;39744;53.314;5.710;2022-10-26T10:38:50;15.40;99.90
53844;DHT22;39744;53.314;5.710;2022-10-26T10:41:19;15.30;99.90
53844;DHT22;39744;53.314;5.710;2022-10-26T10:43:57;15.60;99.90
53844;DHT22;39744;53.314;5.710;2022-10-26T10:46:25;15.70;99.90
53844;DHT22;39744;53.314;5.710;2022-10-26T10:48:59;15.60;99.90
53844;DHT22;39744;53.314;5.710;2022-10-26T10:51:26;15.80;99.90
53844;DHT22;39744;53.314;5.710;2022-10-26T10:53:55;15.90;99.90
53844;DHT22;39744;53.314;5.710;2022-10-26T11:04:51;16.30;99.90
53844;DHT22;39744;53.314;5.710;2022-10-26T11:07:22;16.40;99.90
53844;DHT22;39744;53.314;5.710;2022-10-26T11:09:49;16.50;99.90
53844;DHT22;39744;53.314;5.710;2022-10-26T11:12:21;16.40;99.90
53844;DHT22;39744;53.314;5.710;2022-10-26T11:14:53;16.90;99.90
53844;DHT22;39744;53.314;5.710;2022-10-26T11:17:24;16.90;99.90
53844;DHT22;39744;53.314;5.710;2022-10-26T11:20:08;16.50;99.90
53844;DHT22;39744;53.314;5.710;2022-10-26T11:22:41;16.70;99.90
53844;DHT22;39744;53.314;5.710;2022-10-26T11:25:16;16.80;99.90
53844;DHT22;39744;53.314;5.710;2022-10-26T11:27:51;17.10;99.90
53844;DHT22;39744;53.314;5.710;2022-10-26T11:30:22;16.90;99.90
53844;DHT22;39744;53.314;5.710;2022-10-26T11:33:10;16.90;99.90
53844;DHT22;39744;53.314;5.710;2022-10-26T11:35:45;17.00;99.90
53844;DHT22;39744;53.314;5.710;2022-10-26T11:38:19;17.10;99.90
53844;DHT22;39744;53.314;5.710;2022-10-26T11:43:46;17.10;99.90
53844;DHT22;39744;53.314;5.710;2022-10-26T11:46:20;17.30;99.90
53844;DHT22;39744;53.314;5.710;2022-10-26T11:51:42;17.20;99.90
53844;DHT22;39744;53.314;5.710;2022-10-26T11:54:31;17.20;99.90
53844;DHT22;39744;53.314;5.710;2022-10-26T11:56:58;17.20;99.90
53844;DHT22;39744;53.314;5.710;2022-10-26T11:59:27;17.30;99.90
53844;DHT22;39744;53.314;5.710;2022-10-26T12:02:01;17.00;99.90
53844;DHT22;39744;53.314;5.710;2022-10-26T12:04:30;17.00;99.90
53844;DHT22;39744;53.314;5.710;2022-10-26T12:06:58;17.40;99.90
53844;DHT22;39744;53.314;5.710;2022-10-26T12:09:30;17.20;99.90
53844;DHT22;39744;53.314;5.710;2022-10-26T12:12:12;17.30;99.90
53844;DHT22;39744;53.314;5.710;2022-10-26T12:14:51;17.20;99.90
53844;DHT22;39744;53.314;5.710;2022-10-26T12:23:04;17.60;99.90
53844;DHT22;39744;53.314;5.710;2022-10-26T12:25:30;17.80;99.90
53844;DHT22;39744;53.314;5.710;2022-10-26T12:27:56;17.70;99.90
53844;DHT22;39744;53.314;5.710;2022-10-26T12:30:27;17.80;99.90
53844;DHT22;39744;53.314;5.710;2022-10-26T12:33:27;17.80;99.90
53844;DHT22;39744;53.314;5.710;2022-10-26T12:35:53;17.80;99.90
53844;DHT22;39744;53.314;5.710;2022-10-26T12:38:26;17.80;99.90
53844;DHT22;39744;53.314;5.710;2022-10-26T12:41:21;17.80;99.90
53844;DHT22;39744;53.314;5.710;2022-10-26T12:43:47;17.80;99.90
53844;DHT22;39744;53.314;5.710;2022-10-26T12:56:50;18.00;99.90
53844;DHT22;39744;53.314;5.710;2022-10-26T12:59:30;18.10;99.90
53844;DHT22;39744;53.314;5.710;2022-10-26T13:07:48;18.00;99.90
53844;DHT22;39744;53.314;5.710;2022-10-26T13:10:21;18.00;99.90
53844;DHT22;39744;53.314;5.710;2022-10-26T13:12:53;18.00;99.90
53844;DHT22;39744;53.314;5.710;2022-10-26T13:18:13;18.00;99.90
53844;DHT22;39744;53.314;5.710;2022-10-26T13:21:09;17.80;99.90
53844;DHT22;39744;53.314;5.710;2022-10-26T13:26:26;17.70;99.90
53844;DHT22;39744;53.314;5.710;2022-10-26T13:28:57;17.60;99.90
53844;DHT22;39744;53.314;5.710;2022-10-26T13:33:58;17.60;99.90
53844;DHT22;39744;53.314;5.710;2022-10-26T13:36:33;17.60;99.90
53844;DHT22;39744;53.314;5.710;2022-10-26T13:41:45;17.50;99.90
53844;DHT22;39744;53.314;5.710;2022-10-26T13:44:40;17.40;99.90
53844;DHT22;39744;53.314;5.710;2022-10-26T13:47:14;17.40;99.90
53844;DHT22;39744;53.314;5.710;2022-10-26T13:49:51;17.30;99.90
53844;DHT22;39744;53.314;5.710;2022-10-26T13:52:22;17.30;99.90
53844;DHT22;39744;53.314;5.710;2022-10-26T13:54:57;17.30;99.90
53844;DHT22;39744;53.314;5.710;2022-10-26T13:57:38;17.30;99.90
53844;DHT22;39744;53.314;5.710;2022-10-26T14:00:23;17.40;99.90
53844;DHT22;39744;53.314;5.710;2022-10-26T14:02:48;17.10;99.90
53844;DHT22;39744;53.314;5.710;2022-10-26T14:05:17;17.30;99.90
53844;DHT22;39744;53.314;5.710;2022-10-26T14:07:57;17.20;99.90
53844;DHT22;39744;53.314;5.710;2022-10-26T14:10:33;17.20;99.90
53844;DHT22;39744;53.314;5.710;2022-10-26T14:13:00;17.10;99.90
53844;DHT22;39744;53.314;5.710;2022-10-26T14:15:31;17.10;99.90
53844;DHT22;39744;53.314;5.710;2022-10-26T14:17:59;17.00;99.90
53844;DHT22;39744;53.314;5.710;2022-10-26T14:20:27;16.90;99.90
53844;DHT22;39744;53.314;5.710;2022-10-26T14:22:53;16.90;99.90
53844;DHT22;39744;53.314;5.710;2022-10-26T14:25:24;16.90;99.90
53844;DHT22;39744;53.314;5.710;2022-10-26T14:27:50;16.90;99.90
53844;DHT22;39744;53.314;5.710;2022-10-26T14:30:29;16.90;99.90
53844;DHT22;39744;53.314;5.710;2022-10-26T14:32:55;16.80;99.90
53844;DHT22;39744;53.314;5.710;2022-10-26T14:35:27;16.80;99.90
53844;DHT22;39744;53.314;5.710;2022-10-26T14:37:59;16.80;99.90
53844;DHT22;39744;53.314;5.710;2022-10-26T14:40:29;16.70;99.90
53844;DHT22;39744;53.314;5.710;2022-10-26T14:42:59;16.70;99.90
53844;DHT22;39744;53.314;5.710;2022-10-26T14:47:57;16.70;99.90
53844;DHT22;39744;53.314;5.710;2022-10-26T14:50:23;16.70;99.90
53844;DHT22;39744;53.314;5.710;2022-10-26T14:52:57;16.70;99.90
53844;DHT22;39744;53.314;5.710;2022-10-26T14:55:25;16.70;99.90
53844;DHT22;39744;53.314;5.710;2022-10-26T14:57:52;16.60;99.90
53844;DHT22;39744;53.314;5.710;2022-10-26T15:00:32;16.60;99.90
53844;DHT22;39744;53.314;5.710;2022-10-26T15:02:58;16.60;99.90
53844;DHT22;39744;53.314;5.710;2022-10-26T15:05:25;16.60;99.90
53844;DHT22;39744;53.314;5.710;2022-10-26T15:07:53;16.50;99.90
53844;DHT22;39744;53.314;5.710;2022-10-26T15:13:27;16.50;99.90
53844;DHT22;39744;53.314;5.710;2022-10-26T15:15:56;16.50;99.90
53844;DHT22;39744;53.314;5.710;2022-10-26T15:18:27;16.50;99.90
53844;DHT22;39744;53.314;5.710;2022-10-26T15:20:54;16.40;99.90
53844;DHT22;39744;53.314;5.710;2022-10-26T15:23:22;16.40;99.90
53844;DHT22;39744;53.314;5.710;2022-10-26T15:25:52;16.40;99.90
53844;DHT22;39744;53.314;5.710;2022-10-26T15:33:53;16.30;99.90
53844;DHT22;39744;53.314;5.710;2022-10-26T15:36:30;16.20;99.90
53844;DHT22;39744;53.314;5.710;2022-10-26T15:38:57;16.20;99.90
53844;DHT22;39744;53.314;5.710;2022-10-26T15:41:29;16.10;99.90
53844;DHT22;39744;53.314;5.710;2022-10-26T15:43:57;16.10;99.90
53844;DHT22;39744;53.314;5.710;2022-10-26T15:46:31;16.10;99.90
53844;DHT22;39744;53.314;5.710;2022-10-26T15:48:59;16.00;99.90
53844;DHT22;39744;53.314;5.710;2022-10-26T15:51:26;16.00;99.90
53844;DHT22;39744;53.314;5.710;2022-10-26T15:53:52;16.10;99.90
53844;DHT22;39744;53.314;5.710;2022-10-26T15:56:21;16.00;99.90
53844;DHT22;39744;53.314;5.710;2022-10-26T15:58:51;16.00;99.90
53844;DHT22;39744;53.314;5.710;2022-10-26T16:01:22;16.00;99.90
53844;DHT22;39744;53.314;5.710;2022-10-26T16:03:48;16.00;99.90
53844;DHT22;39744;53.314;5.710;2022-10-26T16:06:40;16.00;99.90
53844;DHT22;39744;53.314;5.710;2022-10-26T16:09:11;16.00;99.90
53844;DHT22;39744;53.314;5.710;2022-10-26T16:11:37;15.90;99.90
53844;DHT22;39744;53.314;5.710;2022-10-26T16:14:03;15.90;99.90
53844;DHT22;39744;53.314;5.710;2022-10-26T16:16:28;15.90;99.90
53844;DHT22;39744;53.314;5.710;2022-10-26T16:18:55;15.60;99.90
53844;DHT22;39744;53.314;5.710;2022-10-26T16:21:22;15.70;99.90
53844;DHT22;39744;53.314;5.710;2022-10-26T16:23:49;15.60;99.90
53844;DHT22;39744;53.314;5.710;2022-10-26T16:26:16;15.50;99.90
53844;DHT22;39744;53.314;5.710;2022-10-26T16:28:42;15.40;99.90
53844;DHT22;39744;53.314;5.710;2022-10-26T16:31:11;15.40;99.90
53844;DHT22;39744;53.314;5.710;2022-10-26T16:33:37;15.40;99.90
53844;DHT22;39744;53.314;5.710;2022-10-26T16:36:03;15.30;99.90
53844;DHT22;39744;53.314;5.710;2022-10-26T16:38:30;15.30;99.90
53844;DHT22;39744;53.314;5.710;2022-10-26T16:43:36;15.30;99.90
53844;DHT22;39744;53.314;5.710;2022-10-26T16:46:08;15.20;99.90
53844;DHT22;39744;53.314;5.710;2022-10-26T16:48:36;15.20;99.90
53844;DHT22;39744;53.314;5.710;2022-10-26T16:51:09;15.20;99.90
53844;DHT22;39744;53.314;5.710;2022-10-26T16:53:35;15.20;99.90
53844;DHT22;39744;53.314;5.710;2022-10-26T16:56:06;15.20;99.90
53844;DHT22;39744;53.314;5.710;2022-10-26T16:58:32;15.20;99.90
53844;DHT22;39744;53.314;5.710;2022-10-26T17:00:58;15.20;99.90
53844;DHT22;39744;53.314;5.710;2022-10-26T17:03:23;15.10;99.90
53844;DHT22;39744;53.314;5.710;2022-10-26T17:06:16;15.10;99.90
53844;DHT22;39744;53.314;5.710;2022-10-26T17:08:42;15.10;99.90
53844;DHT22;39744;53.314;5.710;2022-10-26T17:11:18;15.20;99.90
53844;DHT22;39744;53.314;5.710;2022-10-26T17:13:44;15.10;99.90
53844;DHT22;39744;53.314;5.710;2022-10-26T17:16:13;15.10;99.90
53844;DHT22;39744;53.314;5.710;2022-10-26T17:18:40;15.10;99.90
53844;DHT22;39744;53.314;5.710;2022-10-26T17:21:07;15.00;99.90
53844;DHT22;39744;53.314;5.710;2022-10-26T17:23:33;14.90;99.90
53844;DHT22;39744;53.314;5.710;2022-10-26T17:26:02;14.80;99.90
53844;DHT22;39744;53.314;5.710;2022-10-26T17:28:29;14.70;99.90
53844;DHT22;39744;53.314;5.710;2022-10-26T17:31:09;14.70;99.90
53844;DHT22;39744;53.314;5.710;2022-10-26T17:33:36;14.60;99.90
53844;DHT22;39744;53.314;5.710;2022-10-26T17:36:04;14.60;99.90
53844;DHT22;39744;53.314;5.710;2022-10-26T17:38:32;14.50;99.90
53844;DHT22;39744;53.314;5.710;2022-10-26T17:41:02;14.50;99.90
53844;DHT22;39744;53.314;5.710;2022-10-26T17:43:32;14.40;99.90
53844;DHT22;39744;53.314;5.710;2022-10-26T17:46:03;14.40;99.90
53844;DHT22;39744;53.314;5.710;2022-10-26T17:48:30;14.40;99.90
53844;DHT22;39744;53.314;5.710;2022-10-26T17:51:04;14.30;99.90